Time;durP1;ratioP1;P1;durP2;ratioP2;P2;SDS_P1;SDS_P2;PMS_P1;PMS_P2;Temp;Humidity;BMP_temperature;BMP_pressure;BME280_temperature;BME280_humidity;BME280_pressure;Samples;Min_cycle;Max_cycle;Signal;HPM_P1;HPM_P2
2021/06/27 00:02:05;;;;;;;13.80;6.82;;;;;;;25.93;42.91;101397.47;5053429;28;20082;-61
2021/06/27 00:04:31;;;;;;;11.43;6.88;;;;;;;25.88;42.61;101391.78;5053481;28;20553;-61
2021/06/27 00:06:56;;;;;;;8.20;6.35;;;;;;;25.83;42.97;101399.81;5054090;28;20362;-61
2021/06/27 00:09:21;;;;;;;12.52;7.07;;;;;;;25.77;42.91;101386.94;5052464;28;20033;-60
2021/06/27 00:11:47;;;;;;;11.18;6.85;;;;;;;25.70;43.26;101388.88;5053670;28;20036;-60
2021/06/27 00:14:13;;;;;;;12.63;6.80;;;;;;;25.68;43.27;101385.50;5053644;28;20052;-61
2021/06/27 00:16:39;;;;;;;14.15;7.70;;;;;;;25.65;42.98;101376.84;5053602;28;20070;-61
2021/06/27 00:19:05;;;;;;;9.10;6.53;;;;;;;25.61;43.60;101376.44;5053616;28;20496;-61
2021/06/27 00:21:31;;;;;;;11.27;7.63;;;;;;;25.58;43.78;101376.00;5053625;28;20028;-61
2021/06/27 00:23:56;;;;;;;9.45;6.95;;;;;;;25.56;43.38;101383.63;5053339;28;20028;-60
2021/06/27 00:26:24;;;;;;;10.10;7.45;;;;;;;25.52;43.29;101383.19;5053117;28;20052;-61
2021/06/27 00:28:50;;;;;;;11.75;7.90;;;;;;;25.49;43.58;101378.13;5055979;28;20033;-61
2021/06/27 00:31:16;;;;;;;11.50;7.35;;;;;;;25.46;43.16;101384.03;5057889;28;20075;-61
2021/06/27 00:33:41;;;;;;;12.90;6.88;;;;;;;25.43;43.58;101384.47;5056666;28;20025;-61
2021/06/27 00:36:07;;;;;;;9.30;7.05;;;;;;;25.38;43.73;101381.47;5039389;28;20489;-61
2021/06/27 00:38:33;;;;;;;13.23;7.20;;;;;;;25.35;43.44;101373.69;5057668;28;20025;-61
2021/06/27 00:40:59;;;;;;;12.32;7.80;;;;;;;25.32;43.79;101376.88;5039962;28;20107;-60
2021/06/27 00:43:24;;;;;;;13.40;7.70;;;;;;;25.28;43.53;101370.09;5039196;28;20424;-61
2021/06/27 00:45:50;;;;;;;13.30;7.68;;;;;;;25.24;43.61;101375.16;5057271;28;20470;-61
2021/06/27 00:48:15;;;;;;;10.57;7.05;;;;;;;25.18;43.57;101365.03;5057340;28;20048;-61
2021/06/27 00:50:49;;;;;;;13.10;7.72;;;;;;;25.14;43.94;101369.28;5057434;28;20033;-61
2021/06/27 00:53:15;;;;;;;13.77;7.28;;;;;;;25.11;44.09;101368.84;5056034;28;20029;-61
2021/06/27 00:55:41;;;;;;;9.07;6.50;;;;;;;25.07;43.99;101373.91;5057154;28;20032;-61
2021/06/27 00:58:06;;;;;;;10.85;7.78;;;;;;;25.02;44.18;101370.09;5039178;28;20025;-61
2021/06/27 01:00:37;;;;;;;12.25;7.15;;;;;;;25.02;43.85;101375.59;5039215;28;20033;-60
2021/06/27 01:03:03;;;;;;;12.32;8.60;;;;;;;24.99;44.26;101370.53;5056982;28;20474;-61
2021/06/27 01:05:32;;;;;;;13.50;7.32;;;;;;;24.96;44.56;101370.97;5039226;28;20057;-60
2021/06/27 01:07:58;;;;;;;17.70;8.02;;;;;;;24.93;44.46;101365.91;5039048;28;20033;-60
2021/06/27 01:10:23;;;;;;;10.77;7.20;;;;;;;24.89;44.11;101371.81;5056796;28;20497;-61
2021/06/27 01:12:50;;;;;;;11.15;7.60;;;;;;;24.84;43.97;101374.34;5056819;28;20031;-61
2021/06/27 01:15:16;;;;;;;12.95;7.88;;;;;;;24.81;44.08;101369.25;5056735;28;20025;-62
2021/06/27 01:17:43;;;;;;;10.15;7.20;;;;;;;24.76;44.91;101363.50;5038980;28;20083;-60
2021/06/27 01:20:11;;;;;;;11.38;8.10;;;;;;;24.72;44.76;101370.47;5056596;28;20096;-61
2021/06/27 01:22:38;;;;;;;15.25;8.95;;;;;;;24.68;44.67;101368.38;5056608;28;20120;-61
2021/06/27 01:25:05;;;;;;;13.82;8.32;;;;;;;24.64;44.50;101362.47;5022599;28;20031;-60
2021/06/27 01:27:31;;;;;;;13.68;7.95;;;;;;;24.62;44.49;101367.28;5038216;28;20419;-60
2021/06/27 01:29:56;;;;;;;14.05;9.07;;;;;;;24.61;44.28;101357.38;5056781;28;20039;-61
2021/06/27 01:32:22;;;;;;;10.77;7.70;;;;;;;24.61;45.18;101367.50;5056184;28;20033;-60
2021/06/27 01:34:47;;;;;;;13.00;8.48;;;;;;;24.59;45.21;101364.97;5039380;28;20021;-60
2021/06/27 01:37:13;;;;;;;12.98;8.45;;;;;;;24.58;45.14;101371.50;5056440;28;20083;-61
2021/06/27 01:39:39;;;;;;;14.65;8.65;;;;;;;24.56;44.59;101368.13;5055619;28;20112;-61
2021/06/27 01:42:04;;;;;;;13.20;9.00;;;;;;;24.54;44.62;101372.94;5056564;28;20029;-61
2021/06/27 01:44:30;;;;;;;13.07;8.38;;;;;;;24.50;44.84;101373.59;5056233;28;20036;-61
2021/06/27 01:46:56;;;;;;;16.73;7.75;;;;;;;24.48;44.91;101382.03;5038429;28;20029;-60
2021/06/27 01:49:22;;;;;;;10.60;7.70;;;;;;;24.43;44.95;101376.28;5056112;28;20033;-61
2021/06/27 01:51:47;;;;;;;15.23;8.10;;;;;;;24.40;45.14;101376.69;5038322;28;20092;-60
2021/06/27 01:54:13;;;;;;;15.32;8.48;;;;;;;24.40;44.42;101384.91;5056358;28;20033;-61
2021/06/27 01:56:38;;;;;;;12.80;8.60;;;;;;;24.37;44.58;101382.63;5037987;28;20031;-60
2021/06/27 01:59:05;;;;;;;17.95;9.15;;;;;;;24.34;45.14;101378.38;5056205;28;20029;-61
2021/06/27 02:01:32;;;;;;;14.52;8.90;;;;;;;24.33;45.13;101375.84;5056053;28;20028;-61
2021/06/27 02:03:58;;;;;;;12.90;8.68;;;;;;;24.31;44.77;101373.34;5037706;28;20029;-61
2021/06/27 02:06:25;;;;;;;13.10;8.63;;;;;;;24.27;45.00;101366.56;5055803;28;20401;-61
2021/06/27 02:08:51;;;;;;;14.60;9.60;;;;;;;24.28;44.83;101361.94;5038436;28;20466;-61
2021/06/27 02:11:19;;;;;;;14.00;8.85;;;;;;;24.27;45.42;101366.56;5054253;28;20112;-61
2021/06/27 02:13:45;;;;;;;14.60;9.18;;;;;;;24.26;45.97;101364.88;5037561;28;20029;-61
2021/06/27 02:16:11;;;;;;;17.95;8.43;;;;;;;24.26;45.38;101356.66;5055613;28;20060;-60
2021/06/27 02:18:42;;;;;;;13.15;9.18;;;;;;;24.26;45.18;101355.84;5037563;28;20101;-61
2021/06/27 02:21:12;;;;;;;13.02;8.38;;;;;;;24.25;45.10;101351.41;5038100;28;20409;-60
2021/06/27 02:23:41;;;;;;;13.80;8.93;;;;;;;24.26;45.17;101350.34;5055528;28;20039;-61
2021/06/27 02:26:06;;;;;;;14.15;9.43;;;;;;;24.26;45.89;101345.69;5053182;28;20049;-60
2021/06/27 02:28:32;;;;;;;17.00;8.68;;;;;;;24.29;46.16;101355.38;5037513;28;20066;-61
2021/06/27 02:30:58;;;;;;;16.45;9.05;;;;;;;24.28;45.77;101356.47;5038063;28;20039;-61
2021/06/27 02:33:24;;;;;;;15.90;9.35;;;;;;;24.23;45.32;101345.28;5037237;28;20037;-61
2021/06/27 02:35:50;;;;;;;15.45;9.90;;;;;;;24.28;46.37;101350.97;5055274;28;20029;-61
2021/06/27 02:38:15;;;;;;;14.32;9.23;;;;;;;24.27;45.37;101344.66;5037453;28;20036;-61
2021/06/27 02:40:43;;;;;;;14.35;9.18;;;;;;;24.29;46.08;101345.28;5037385;28;20021;-61
2021/06/27 02:43:09;;;;;;;14.63;10.20;;;;;;;24.32;46.24;101330.34;5037094;28;20117;-61
2021/06/27 02:45:35;;;;;;;20.50;10.35;;;;;;;24.37;45.61;101335.22;5053690;28;20032;-61
2021/06/27 02:48:00;;;;;;;14.88;10.05;;;;;;;24.39;45.97;101335.84;5053615;28;20082;-61
2021/06/27 02:50:25;;;;;;;14.77;8.35;;;;;;;24.40;45.75;101338.34;5054224;28;20159;-61
2021/06/27 02:52:51;;;;;;;12.88;9.13;;;;;;;24.41;46.53;101341.94;5054929;28;20109;-61
2021/06/27 02:55:17;;;;;;;13.70;9.00;;;;;;;24.39;46.34;101336.69;5054548;28;20033;-61
2021/06/27 02:57:42;;;;;;;11.02;7.95;;;;;;;24.31;46.05;101320.44;5036999;28;20029;-61
2021/06/27 03:00:11;;;;;;;14.80;9.50;;;;;;;24.39;45.97;101338.59;5055033;28;20106;-61
2021/06/27 03:02:36;;;;;;;19.05;9.95;;;;;;;24.41;45.98;101340.06;5054655;28;20025;-61
2021/06/27 03:05:02;;;;;;;13.45;8.57;;;;;;;24.40;46.22;101338.34;5036484;28;20464;-61
2021/06/27 03:07:27;;;;;;;13.63;9.27;;;;;;;24.43;46.33;101348.09;5036386;28;20110;-61
2021/06/27 03:09:52;;;;;;;20.48;9.65;;;;;;;24.42;46.85;101349.97;5054822;28;20037;-61
2021/06/27 03:12:18;;;;;;;15.15;8.80;;;;;;;24.44;46.02;101350.59;5053039;28;20036;-60
2021/06/27 03:14:43;;;;;;;16.63;9.18;;;;;;;24.45;46.00;101355.03;5054205;28;20057;-60
2021/06/27 03:17:09;;;;;;;17.52;9.23;;;;;;;24.45;46.96;101352.31;5054610;28;20025;-62
2021/06/27 03:19:34;;;;;;;18.48;8.95;;;;;;;24.47;47.04;101343.88;5036681;28;20017;-61
2021/06/27 03:21:59;;;;;;;16.63;9.07;;;;;;;24.50;46.97;101348.94;5036244;28;20393;-61
2021/06/27 03:24:25;;;;;;;14.63;9.48;;;;;;;24.50;47.16;101338.81;5054102;28;20032;-60
2021/06/27 03:26:50;;;;;;;13.57;8.40;;;;;;;24.53;46.27;101321.97;5053941;28;20045;-61
2021/06/27 03:29:15;;;;;;;15.73;9.77;;;;;;;24.55;46.87;101311.63;5054393;28;20202;-61
2021/06/27 03:31:41;;;;;;;14.63;9.50;;;;;;;24.55;46.44;101306.16;5036246;28;20033;-61
2021/06/27 03:34:06;;;;;;;15.90;9.68;;;;;;;24.61;47.28;101309.97;5054228;28;20033;-60
2021/06/27 03:36:32;;;;;;;12.95;9.38;;;;;;;24.63;46.57;101308.69;5054112;28;20484;-60
2021/06/27 03:41:23;;;;;;;14.63;9.88;;;;;;;24.69;46.16;101310.59;5036595;28;20373;-61
2021/06/27 03:43:49;;;;;;;18.13;10.13;;;;;;;24.71;47.05;101316.72;5054503;28;20029;-61
2021/06/27 03:46:15;;;;;;;13.55;8.73;;;;;;;24.74;46.23;101316.28;5054105;28;20024;-60
2021/06/27 03:48:41;;;;;;;20.70;9.48;;;;;;;24.73;46.58;101313.78;5036284;28;20106;-61
2021/06/27 03:51:07;;;;;;;18.10;9.00;;;;;;;24.76;47.15;101313.34;5053926;28;20025;-60
2021/06/27 03:53:32;;;;;;;15.40;9.80;;;;;;;24.75;46.58;101314.41;5053613;28;20067;-61
2021/06/27 03:55:58;;;;;;;15.10;10.25;;;;;;;24.76;46.95;101305.13;5053790;28;20489;-61
2021/06/27 03:58:27;;;;;;;13.25;9.32;;;;;;;24.81;47.12;101311.72;5053798;28;20104;-60
2021/06/27 04:00:53;;;;;;;15.57;9.52;;;;;;;24.84;46.89;101305.81;5053707;28;20112;-60
2021/06/27 04:03:19;;;;;;;14.13;9.52;;;;;;;24.85;46.65;101301.13;5053359;28;20025;-61
2021/06/27 04:05:44;;;;;;;17.30;10.85;;;;;;;24.90;46.54;101302.19;5053739;28;20033;-61
2021/06/27 04:08:09;;;;;;;12.75;8.82;;;;;;;24.94;46.98;101307.25;5053671;28;20040;-61
2021/06/27 04:10:35;;;;;;;15.65;9.10;;;;;;;24.96;46.72;101295.03;5053387;28;20496;-61
2021/06/27 04:13:00;;;;;;;13.95;8.98;;;;;;;25.00;46.90;101292.72;5053678;28;20108;-61
2021/06/27 04:15:26;;;;;;;14.80;9.00;;;;;;;25.00;46.31;101289.97;5053600;28;20028;-61
2021/06/27 04:17:51;;;;;;;14.32;9.60;;;;;;;25.05;46.61;101301.13;5053588;28;20029;-61
2021/06/27 04:20:16;;;;;;;14.10;8.90;;;;;;;25.06;46.55;101308.31;5053262;28;20036;-60
2021/06/27 04:22:42;;;;;;;12.00;8.43;;;;;;;25.08;46.50;101303.44;5053247;28;20033;-60
2021/06/27 04:25:08;;;;;;;13.73;8.35;;;;;;;25.09;46.60;101297.78;5053556;28;20035;-61
2021/06/27 04:27:33;;;;;;;14.50;8.93;;;;;;;25.08;46.00;101287.00;5053027;28;20398;-61
2021/06/27 04:29:59;;;;;;;11.95;8.57;;;;;;;25.17;45.87;101296.69;5052043;28;20025;-61
2021/06/27 04:32:24;;;;;;;14.63;8.85;;;;;;;25.18;46.23;101292.91;5053488;28;20032;-61
2021/06/27 04:34:50;;;;;;;14.85;9.07;;;;;;;25.19;45.75;101284.47;5053724;28;20029;-61
2021/06/27 04:37:16;;;;;;;15.18;9.07;;;;;;;25.22;46.33;101288.69;5053178;28;20498;-61
2021/06/27 04:39:41;;;;;;;18.77;8.27;;;;;;;25.23;45.79;101282.16;5053108;28;20532;-61
2021/06/27 04:42:06;;;;;;;17.48;9.27;;;;;;;25.24;45.97;101286.56;5053345;28;20072;-60
2021/06/27 04:44:32;;;;;;;14.27;9.32;;;;;;;25.24;45.85;101284.66;5035348;28;20036;-60
2021/06/27 04:46:57;;;;;;;13.57;8.27;;;;;;;25.27;45.60;101286.13;5053061;28;20025;-61
2021/06/27 04:49:22;;;;;;;26.23;10.80;;;;;;;25.31;46.35;101287.41;5053352;28;20033;-61
2021/06/27 04:51:48;;;;;;;16.20;9.57;;;;;;;25.40;46.16;101286.13;5051890;28;20040;-62
2021/06/27 04:54:13;;;;;;;12.77;8.68;;;;;;;25.51;45.56;101290.97;5035551;28;20461;-61
2021/06/27 04:56:39;;;;;;;15.65;10.23;;;;;;;25.61;45.55;101282.28;5053487;28;20033;-61
2021/06/27 04:59:04;;;;;;;16.92;8.85;;;;;;;25.71;45.71;101274.44;5053438;28;20013;-61
2021/06/27 05:01:30;;;;;;;18.73;9.75;;;;;;;25.78;45.27;101262.38;5053429;28;20037;-60
2021/06/27 05:03:55;;;;;;;15.30;9.60;;;;;;;25.88;45.55;101259.97;5053346;28;20091;-61
2021/06/27 05:06:21;;;;;;;18.48;9.75;;;;;;;26.00;45.52;101271.13;5053114;28;20474;-60
2021/06/27 05:08:46;;;;;;;14.88;9.05;;;;;;;26.08;45.10;101272.75;5052798;28;20572;-60
2021/06/27 05:11:11;;;;;;;12.85;8.68;;;;;;;26.13;45.31;101259.25;5053128;28;20060;-61
2021/06/27 05:13:37;;;;;;;15.13;8.63;;;;;;;26.27;45.31;101269.13;5035415;28;20037;-60
2021/06/27 05:16:02;;;;;;;17.65;8.38;;;;;;;26.36;44.79;101270.50;5038948;28;20543;-61
2021/06/27 05:18:27;;;;;;;15.05;8.35;;;;;;;26.49;45.19;101275.94;5056753;28;20024;-60
2021/06/27 05:20:53;;;;;;;13.77;7.95;;;;;;;26.57;44.89;101268.25;5056672;28;20029;-61
2021/06/27 05:23:18;;;;;;;21.48;8.27;;;;;;;26.54;44.69;101267.84;5056476;28;20386;-61
2021/06/27 05:25:44;;;;;;;15.18;7.28;;;;;;;26.54;44.65;101276.09;5056554;28;20051;-61
2021/06/27 05:28:09;;;;;;;17.05;7.55;;;;;;;26.53;45.06;101278.00;5056490;28;20025;-61
2021/06/27 05:30:35;;;;;;;12.93;7.53;;;;;;;26.65;44.74;101269.88;5056114;28;20503;-60
2021/06/27 05:33:01;;;;;;;13.18;7.38;;;;;;;26.81;44.68;101274.84;5056143;28;20035;-62
2021/06/27 05:35:26;;;;;;;14.45;6.97;;;;;;;26.95;44.38;101270.91;5056379;28;20024;-61
2021/06/27 05:37:52;;;;;;;13.35;6.88;;;;;;;27.05;44.55;101276.72;5056094;28;20358;-61
2021/06/27 05:40:17;;;;;;;11.90;7.25;;;;;;;27.28;44.10;101270.56;5054710;28;20029;-60
2021/06/27 05:42:43;;;;;;;14.27;6.38;;;;;;;27.45;44.21;101266.19;5055958;28;20029;-61
2021/06/27 05:45:08;;;;;;;17.42;6.70;;;;;;;27.68;44.19;101271.84;5056506;28;20032;-60
2021/06/27 05:47:34;;;;;;;14.70;6.65;;;;;;;27.86;43.65;101262.75;5055917;28;20123;-61
2021/06/27 05:49:59;;;;;;;16.88;6.90;;;;;;;27.95;43.14;101261.31;5056363;28;20029;-61
2021/06/27 05:52:25;;;;;;;16.27;6.45;;;;;;;28.11;43.23;101257.94;5055779;28;20033;-60
2021/06/27 05:54:50;;;;;;;12.90;6.43;;;;;;;28.23;43.63;101266.25;5056096;28;20373;-61
2021/06/27 05:57:16;;;;;;;12.00;6.82;;;;;;;28.48;43.36;101268.84;5055993;28;20044;-60
2021/06/27 05:59:41;;;;;;;18.20;6.85;;;;;;;28.60;43.33;101258.69;5055939;28;20040;-60
2021/06/27 06:02:07;;;;;;;15.63;6.15;;;;;;;28.76;42.08;101263.53;5055836;28;20060;-60
2021/06/27 06:04:33;;;;;;;16.48;6.45;;;;;;;28.84;42.03;101265.94;5054515;28;20033;-61
2021/06/27 06:06:58;;;;;;;10.95;5.85;;;;;;;28.88;42.46;101269.91;5037762;28;20048;-60
2021/06/27 06:09:24;;;;;;;11.93;6.05;;;;;;;28.91;41.77;101266.69;5038179;28;20037;-61
2021/06/27 06:11:49;;;;;;;13.00;5.88;;;;;;;28.98;41.84;101272.09;5056003;28;20524;-61
2021/06/27 06:14:14;;;;;;;16.10;6.07;;;;;;;29.03;42.00;101261.16;5055775;28;20025;-62
2021/06/27 06:16:41;;;;;;;9.18;5.40;;;;;;;29.06;42.08;101261.53;5055605;28;20032;-62
2021/06/27 06:19:08;;;;;;;12.35;5.82;;;;;;;29.09;42.43;101268.50;5055584;28;20032;-61
2021/06/27 06:21:33;;;;;;;10.05;5.53;;;;;;;29.14;41.23;101272.22;5055516;28;20033;-62
2021/06/27 06:23:58;;;;;;;9.55;5.93;;;;;;;29.19;41.31;101268.72;5055256;28;20485;-61
2021/06/27 06:26:24;;;;;;;10.07;6.47;;;;;;;29.23;41.25;101262.50;5053891;28;20057;-60
2021/06/27 06:28:49;;;;;;;9.30;5.40;;;;;;;29.22;41.60;101263.59;5055012;28;20035;-61
2021/06/27 06:31:14;;;;;;;9.98;5.32;;;;;;;29.24;42.00;101261.44;5055362;28;20033;-60
2021/06/27 06:33:40;;;;;;;9.48;5.47;;;;;;;29.34;41.12;101267.16;5055307;28;20362;-60
2021/06/27 06:36:06;;;;;;;12.07;5.90;;;;;;;29.36;41.28;101265.03;5055819;28;20025;-61
2021/06/27 06:38:31;;;;;;;13.07;5.35;;;;;;;29.51;40.93;101271.97;5037268;28;20174;-60
2021/06/27 06:40:57;;;;;;;10.85;5.25;;;;;;;29.61;40.78;101269.41;5055147;28;20059;-60
2021/06/27 06:43:23;;;;;;;9.75;5.47;;;;;;;29.82;41.33;101268.78;5055035;28;20025;-60
2021/06/27 06:45:48;;;;;;;9.75;4.97;;;;;;;30.09;41.07;101272.66;5055022;28;20025;-60
2021/06/27 06:48:14;;;;;;;11.73;5.03;;;;;;;30.34;40.04;101267.63;5054980;28;20399;-61
2021/06/27 06:50:39;;;;;;;12.13;6.50;;;;;;;30.57;39.76;101269.41;5055206;28;20036;-60
2021/06/27 06:53:05;;;;;;;9.32;6.00;;;;;;;30.77;40.14;101258.69;5054815;28;20025;-61
2021/06/27 06:55:30;;;;;;;8.70;4.75;;;;;;;30.99;39.89;101264.34;5036912;28;20085;-61
2021/06/27 06:57:56;;;;;;;8.65;5.45;;;;;;;31.11;39.51;101259.53;5054880;28;20051;-61
2021/06/27 07:00:21;;;;;;;10.50;5.10;;;;;;;31.20;39.25;101263.56;5036785;28;20056;-62
2021/06/27 07:02:47;;;;;;;10.00;4.35;;;;;;;31.36;39.19;101254.38;5037343;28;20075;-59
2021/06/27 07:05:12;;;;;;;6.70;5.07;;;;;;;31.52;39.07;101253.50;5054468;28;20102;-61
2021/06/27 07:07:40;;;;;;;7.55;4.68;;;;;;;31.68;38.87;101258.16;5054872;28;20040;-61
2021/06/27 07:10:06;;;;;;;9.55;4.70;;;;;;;31.87;38.69;101260.59;5054604;28;20028;-61
2021/06/27 07:12:31;;;;;;;12.48;4.82;;;;;;;31.97;38.64;101260.69;5054474;28;20036;-61
2021/06/27 07:14:57;;;;;;;8.95;4.60;;;;;;;32.13;38.77;101255.09;5054491;28;20037;-60
2021/06/27 07:17:22;;;;;;;7.10;4.18;;;;;;;32.47;38.17;101257.66;5036966;28;20105;-61
2021/06/27 07:19:48;;;;;;;6.18;4.45;;;;;;;32.62;37.67;101258.66;5054460;28;20108;-60
2021/06/27 07:22:13;;;;;;;5.55;4.20;;;;;;;32.65;37.47;101244.25;5053180;28;20024;-60
2021/06/27 07:24:38;;;;;;;5.90;3.55;;;;;;;32.84;37.86;101253.00;5054361;28;20024;-62
2021/06/27 07:27:05;;;;;;;7.03;3.85;;;;;;;32.84;37.37;101247.44;5053955;28;20552;-60
2021/06/27 07:29:31;;;;;;;7.07;3.97;;;;;;;32.97;36.46;101248.94;5053856;28;20051;-61
2021/06/27 07:31:56;;;;;;;7.50;3.83;;;;;;;32.87;36.66;101248.84;5054133;28;20033;-61
2021/06/27 07:34:21;;;;;;;11.80;4.55;;;;;;;32.75;36.82;101263.75;5053899;28;20032;-61
2021/06/27 07:36:47;;;;;;;6.57;4.00;;;;;;;32.71;37.06;101265.41;5053510;28;20021;-61
2021/06/27 07:39:13;;;;;;;8.18;4.40;;;;;;;32.63;37.66;101254.78;5053952;28;20021;-61
2021/06/27 07:41:38;;;;;;;9.05;4.28;;;;;;;32.63;37.16;101249.25;5054004;28;20043;-61
2021/06/27 07:44:04;;;;;;;8.60;3.95;;;;;;;32.65;36.96;101251.75;5053730;28;20035;-62
2021/06/27 07:46:29;;;;;;;5.18;3.50;;;;;;;32.64;37.26;101250.91;5053334;28;20450;-61
2021/06/27 07:48:55;;;;;;;5.65;4.03;;;;;;;32.75;37.30;101258.22;5036317;28;20032;-61
2021/06/27 07:51:20;;;;;;;4.70;4.07;;;;;;;32.93;36.28;101259.75;5052410;28;20041;-60
2021/06/27 07:53:45;;;;;;;7.25;4.53;;;;;;;33.02;36.33;101263.69;5053630;28;20435;-61
2021/06/27 07:56:11;;;;;;;7.50;4.53;;;;;;;33.10;36.44;101262.41;5053847;28;20522;-60
2021/06/27 07:58:36;;;;;;;6.88;3.78;;;;;;;33.16;37.29;101255.78;5019669;28;20020;-61
2021/06/27 08:01:02;;;;;;;5.18;3.95;;;;;;;33.17;35.92;101260.19;5053539;28;20537;-61
2021/06/27 08:03:27;;;;;;;4.78;3.83;;;;;;;33.08;36.72;101259.06;5053996;28;20025;-61
2021/06/27 08:05:53;;;;;;;8.15;4.40;;;;;;;33.03;36.43;101254.25;5053771;28;20029;-60
2021/06/27 08:08:18;;;;;;;5.45;4.03;;;;;;;33.02;36.29;101257.31;5053387;28;20032;-60
2021/06/27 08:10:43;;;;;;;10.95;4.50;;;;;;;32.98;37.45;101256.16;5052151;28;20042;-60
2021/06/27 08:13:09;;;;;;;8.38;4.72;;;;;;;33.06;37.03;101256.53;5052478;28;20029;-61
2021/06/27 08:15:35;;;;;;;5.40;3.90;;;;;;;33.09;35.99;101255.16;5053602;28;20126;-62
2021/06/27 08:18:00;;;;;;;8.50;4.78;;;;;;;33.10;36.13;101249.34;5053466;28;20385;-61
2021/06/27 08:20:26;;;;;;;4.18;3.40;;;;;;;33.13;36.95;101253.53;5053529;28;20029;-61
2021/06/27 08:22:51;;;;;;;8.50;4.50;;;;;;;33.21;36.95;101253.03;5053177;28;20470;-61
2021/06/27 08:25:17;;;;;;;9.73;4.30;;;;;;;33.22;36.71;101251.94;5053577;28;20028;-62
2021/06/27 08:27:43;;;;;;;8.45;4.82;;;;;;;33.23;35.98;101259.13;5051737;28;20460;-61
2021/06/27 08:30:09;;;;;;;4.43;3.80;;;;;;;33.32;36.06;101257.53;5035756;28;20481;-61
2021/06/27 08:32:36;;;;;;;6.47;3.70;;;;;;;33.44;36.70;101254.53;5051955;28;20048;-61
2021/06/27 08:35:03;;;;;;;6.18;4.38;;;;;;;33.49;35.54;101252.63;5051946;28;20025;-61
2021/06/27 08:37:28;;;;;;;5.35;4.05;;;;;;;33.60;36.66;101254.38;5053478;28;20029;-61
2021/06/27 08:39:54;;;;;;;5.63;4.38;;;;;;;33.70;35.68;101253.56;5053654;28;20036;-60
2021/06/27 08:42:20;;;;;;;8.88;4.72;;;;;;;33.82;36.73;101241.13;5053125;28;20056;-61
2021/06/27 08:44:47;;;;;;;6.72;4.50;;;;;;;33.92;35.65;101246.69;5053244;28;20029;-61
2021/06/27 08:47:17;;;;;;;7.55;4.32;;;;;;;33.97;36.09;101238.38;5053317;28;20053;-61
2021/06/27 08:49:49;;;;;;;3.67;3.33;;;;;;;34.05;35.44;101236.16;5055703;28;20068;-62
2021/06/27 08:52:17;;;;;;;7.88;4.03;;;;;;;34.09;36.14;101234.56;5057012;28;20032;-60
2021/06/27 08:54:44;;;;;;;4.30;3.90;;;;;;;34.21;35.18;101233.16;5039736;28;20053;-61
2021/06/27 08:57:12;;;;;;;5.85;3.95;;;;;;;34.27;36.27;101220.94;5057448;28;20036;-61
2021/06/27 08:59:37;;;;;;;6.65;3.78;;;;;;;34.46;34.75;101224.00;5039213;28;20029;-60
2021/06/27 09:02:03;;;;;;;4.72;4.22;;;;;;;34.71;35.58;101217.63;5056765;28;20112;-60
2021/06/27 09:04:31;;;;;;;5.53;4.32;;;;;;;34.82;35.93;101216.50;5056741;28;20055;-61
2021/06/27 09:07:29;;;;;;;7.07;4.40;;;;;;;34.87;34.72;101216.53;5056625;28;20052;-61
2021/06/27 09:09:56;;;;;;;9.45;4.13;;;;;;;35.01;34.64;101214.81;5057217;28;20024;-60
2021/06/27 09:12:22;;;;;;;4.35;3.95;;;;;;;35.05;35.59;101205.59;5056013;28;20033;-60
2021/06/27 09:14:47;;;;;;;7.00;4.30;;;;;;;35.09;35.40;101212.28;5057112;28;20029;-62
2021/06/27 09:17:16;;;;;;;5.97;3.38;;;;;;;35.05;34.67;101205.59;5039276;28;20033;-62
2021/06/27 09:20:04;;;;;;;4.45;4.00;;;;;;;35.09;35.23;101206.72;5056717;28;20021;-62
2021/06/27 09:22:36;;;;;;;4.70;3.83;;;;;;;35.21;34.89;101202.78;5055128;28;20021;-61
2021/06/27 09:25:15;;;;;;;5.53;3.90;;;;;;;35.39;34.94;101197.44;5056441;28;20072;-62
2021/06/27 09:27:40;;;;;;;5.63;4.20;;;;;;;35.56;34.77;101183.19;5056099;28;20056;-61
2021/06/27 09:30:20;;;;;;;7.47;4.00;;;;;;;35.83;33.92;101183.59;5056222;28;20029;-59
2021/06/27 09:33:19;;;;;;;5.13;4.63;;;;;;;36.02;33.93;101173.44;5055504;28;20028;-58
2021/06/27 09:36:00;;;;;;;5.57;4.03;;;;;;;36.28;33.50;101176.03;5052969;28;20409;-59
2021/06/27 09:38:37;;;;;;;5.68;4.18;;;;;;;36.33;33.38;101164.84;5038895;28;20048;-58
2021/06/27 09:41:07;;;;;;;6.00;5.05;;;;;;;36.55;33.37;101165.22;5056384;28;20025;-60
2021/06/27 09:43:34;;;;;;;6.20;4.60;;;;;;;36.63;32.95;101161.81;5055142;28;20034;-59
2021/06/27 09:46:14;;;;;;;4.65;4.10;;;;;;;36.65;33.19;101160.38;5056006;28;20029;-59
2021/06/27 09:48:49;;;;;;;7.30;3.95;;;;;;;36.81;32.93;101163.00;5056122;28;20037;-59
2021/06/27 09:51:15;;;;;;;6.75;4.07;;;;;;;36.88;32.93;101167.13;5056115;28;20108;-58
2021/06/27 09:53:41;;;;;;;6.53;4.47;;;;;;;36.94;32.81;101165.09;5054535;28;20025;-59
2021/06/27 09:56:08;;;;;;;7.32;4.28;;;;;;;36.89;32.34;101151.19;5038099;28;20024;-59
2021/06/27 09:58:34;;;;;;;4.82;4.25;;;;;;;36.89;32.41;101154.81;5038315;28;20025;-60
2021/06/27 10:01:00;;;;;;;4.88;4.15;;;;;;;36.81;32.44;101155.47;5055376;28;20432;-59
2021/06/27 10:03:30;;;;;;;6.65;3.75;;;;;;;36.80;32.47;101148.19;5037867;28;20028;-59
2021/06/27 10:06:07;;;;;;;5.18;4.13;;;;;;;36.87;32.31;101147.88;5037861;28;20133;-60
2021/06/27 10:08:33;;;;;;;5.68;4.80;;;;;;;37.06;32.37;101141.25;5055741;28;20075;-59
2021/06/27 10:11:16;;;;;;;7.90;7.03;;;;;;;37.38;31.21;101153.72;5055058;28;20040;-60
2021/06/27 10:13:42;;;;;;;;;;;;;;;37.64;31.75;101147.50;5056216;28;20021;-59
2021/06/27 10:16:10;;;;;;;4.68;3.83;;;;;;;37.83;31.98;101137.13;5056055;28;19982;-59
2021/06/27 10:18:36;;;;;;;5.63;4.28;;;;;;;38.25;31.27;101144.59;5055661;28;20017;-59
2021/06/27 10:21:01;;;;;;;4.72;4.28;;;;;;;38.57;30.06;101145.75;5055647;28;20024;-58
2021/06/27 10:23:27;;;;;;;7.35;3.70;;;;;;;38.60;30.07;101131.13;5054043;28;20382;-59
2021/06/27 10:25:53;;;;;;;7.03;3.65;;;;;;;38.57;30.12;101134.53;5055224;28;20053;-59
2021/06/27 10:28:19;;;;;;;4.30;3.90;;;;;;;38.51;30.27;101133.81;5055141;28;20025;-58
2021/06/27 10:30:45;;;;;;;6.18;5.57;;;;;;;38.61;30.03;101132.81;5053939;28;20041;-58
2021/06/27 10:33:10;;;;;;;4.20;3.58;;;;;;;38.75;30.51;101128.84;5055654;28;20055;-59
2021/06/27 10:35:36;;;;;;;4.28;3.80;;;;;;;38.89;29.82;101129.72;5055335;28;20037;-59
2021/06/27 10:38:04;;;;;;;4.80;4.15;;;;;;;39.01;29.64;101126.41;5053887;28;20021;-58
2021/06/27 10:40:57;;;;;;;4.97;3.60;;;;;;;39.12;30.12;101132.63;5037186;28;20021;-59
2021/06/27 10:43:23;;;;;;;3.53;3.08;;;;;;;39.09;29.31;101134.09;5055165;28;20029;-59
2021/06/27 10:45:48;;;;;;;4.45;3.67;;;;;;;38.97;29.63;101125.41;5054014;28;20025;-58
2021/06/27 10:48:32;;;;;;;3.85;3.00;;;;;;;38.79;28.64;101135.56;5054983;28;20033;-59
2021/06/27 10:50:58;;;;;;;4.57;3.65;;;;;;;38.56;28.78;101125.31;5055090;28;20384;-59
2021/06/27 10:53:24;;;;;;;3.60;3.25;;;;;;;38.38;29.93;101124.25;5055000;28;20052;-59
2021/06/27 10:55:50;;;;;;;3.72;3.42;;;;;;;38.20;29.33;101125.09;5053795;28;20028;-59
2021/06/27 10:58:17;;;;;;;5.45;4.07;;;;;;;38.12;29.17;101128.59;5055171;28;20021;-59
2021/06/27 11:00:56;;;;;;;5.13;3.78;;;;;;;38.15;29.49;101125.19;5054844;28;20120;-58
2021/06/27 11:03:42;;;;;;;4.15;3.55;;;;;;;38.21;28.96;101118.34;5055138;28;20055;-58
2021/06/27 11:06:17;;;;;;;4.78;3.20;;;;;;;38.24;29.73;101120.56;5036567;28;20079;-59
2021/06/27 11:08:47;;;;;;;3.55;3.08;;;;;;;38.14;29.72;101117.91;5054316;28;20063;-58
2021/06/27 11:11:19;;;;;;;3.60;3.10;;;;;;;38.25;29.20;101121.38;5053890;28;20036;-58
2021/06/27 11:14:10;;;;;;;5.30;3.25;;;;;;;38.45;28.89;101107.88;5054520;28;20416;-59
2021/06/27 11:16:54;;;;;;;5.25;3.33;;;;;;;38.86;29.78;101115.53;5054557;28;20024;-59
2021/06/27 11:19:28;;;;;;;6.15;3.70;;;;;;;39.13;28.71;101111.88;5054284;28;20016;-58
2021/06/27 11:22:17;;;;;;;6.97;3.60;;;;;;;39.41;29.10;101105.97;5054185;28;20021;-59